createdAt,value
2019-01-04T00:00:18.062Z,0
2019-01-04T00:01:16.667Z,0
2019-01-04T00:02:15.213Z,0
2019-01-04T00:03:14.147Z,0
2019-01-04T00:04:12.711Z,0
2019-01-04T00:05:11.282Z,0
2019-01-04T00:06:10.025Z,0
2019-01-04T00:07:08.556Z,0
2019-01-04T00:08:07.059Z,0
2019-01-04T00:09:05.764Z,0
2019-01-04T00:10:04.518Z,0
2019-01-04T00:11:03.039Z,0
2019-01-04T00:12:01.733Z,0
2019-01-04T00:13:00.454Z,0
2019-01-04T00:13:59.023Z,0
2019-01-04T00:14:57.600Z,0
2019-01-04T00:15:56.202Z,0
2019-01-04T00:16:54.757Z,0
2019-01-04T00:17:53.313Z,0
2019-01-04T00:18:52.013Z,0
2019-01-04T00:19:50.670Z,0
2019-01-04T00:20:49.257Z,0
2019-01-04T00:21:47.916Z,0
2019-01-04T00:22:46.666Z,0
2019-01-04T00:23:45.224Z,0
2019-01-04T00:24:43.789Z,0
2019-01-04T00:25:42.429Z,0
2019-01-04T00:26:40.971Z,0
2019-01-04T00:27:39.495Z,0
2019-01-04T00:28:38.158Z,0
2019-01-04T00:29:36.906Z,0
2019-01-04T00:30:35.589Z,0
2019-01-04T00:31:34.407Z,0
2019-01-04T00:32:32.969Z,0
2019-01-04T00:33:31.574Z,0
2019-01-04T00:34:30.493Z,0
2019-01-04T00:35:29.079Z,0
2019-01-04T00:36:27.687Z,0
2019-01-04T00:37:26.488Z,0
2019-01-04T00:38:25.038Z,0
2019-01-04T00:39:24.417Z,0
2019-01-04T00:40:22.190Z,0
2019-01-04T00:41:20.722Z,0
2019-01-04T00:42:19.384Z,0
2019-01-04T00:43:18.264Z,0
2019-01-04T00:44:16.817Z,0
2019-01-04T00:45:15.380Z,0
2019-01-04T00:46:14.152Z,0
2019-01-04T00:48:54.509Z,0
2019-01-04T00:49:53.061Z,0
2019-01-04T00:50:51.790Z,0
2019-01-04T00:51:50.472Z,0
2019-01-04T00:52:49.817Z,0
2019-01-04T00:53:48.460Z,0
2019-01-04T00:54:47.028Z,0
2019-01-04T00:55:45.707Z,0
2019-01-04T00:56:44.275Z,0
2019-01-04T00:57:42.837Z,0
2019-01-04T00:58:41.371Z,0
2019-01-04T00:59:40.379Z,0
2019-01-04T01:00:38.899Z,0
2019-01-04T01:01:37.429Z,0
2019-01-04T01:02:36.238Z,0
2019-01-04T01:03:34.770Z,0
2019-01-04T01:04:33.286Z,0
2019-01-04T01:05:31.882Z,0
2019-01-04T01:08:52.954Z,0
2019-01-04T01:09:51.635Z,0
2019-01-04T01:10:50.411Z,0
2019-01-04T01:11:48.947Z,0
2019-01-04T01:14:29.263Z,0
2019-01-04T01:15:27.809Z,0
2019-01-04T01:16:27.001Z,0
2019-01-04T01:17:25.716Z,0
2019-01-04T01:18:24.337Z,0
2019-01-04T01:19:22.888Z,0
2019-01-04T01:20:21.389Z,0
2019-01-04T01:21:19.967Z,0
2019-01-04T01:22:18.717Z,0
2019-01-04T01:23:17.596Z,0
2019-01-04T01:24:16.352Z,0
2019-01-04T01:25:14.877Z,0
2019-01-04T01:26:13.426Z,0
2019-01-04T01:27:11.959Z,0
2019-01-04T01:28:10.548Z,0
2019-01-04T01:29:09.091Z,0
2019-01-04T01:30:07.623Z,0
2019-01-04T01:31:06.163Z,0
2019-01-04T01:32:04.908Z,0
2019-01-04T01:33:03.412Z,0
2019-01-04T01:34:02.220Z,0
2019-01-04T01:35:00.773Z,0
2019-01-04T01:35:59.329Z,0
2019-01-04T01:36:58.147Z,0
2019-01-04T01:37:56.687Z,0
2019-01-04T01:38:55.364Z,0
2019-01-04T01:39:54.235Z,0
2019-01-04T01:40:53.794Z,0
2019-01-04T01:41:53.256Z,0
2019-01-04T01:42:52.004Z,0
2019-01-04T01:43:50.627Z,0
2019-01-04T01:44:49.194Z,0
2019-01-04T01:45:47.732Z,0
2019-01-04T01:46:46.301Z,0
2019-01-04T01:47:44.818Z,0
2019-01-04T01:48:43.362Z,0
2019-01-04T01:49:42.358Z,0
2019-01-04T01:50:40.915Z,0
2019-01-04T01:51:39.589Z,0
2019-01-04T01:52:38.299Z,0
2019-01-04T01:53:36.846Z,0
2019-01-04T01:54:35.385Z,0
2019-01-04T01:55:33.927Z,0
2019-01-04T01:56:32.499Z,0
2019-01-04T01:57:31.057Z,0
2019-01-04T01:58:29.645Z,0
2019-01-04T01:59:28.433Z,0
2019-01-04T02:00:27.003Z,0
2019-01-04T02:01:25.579Z,0
2019-01-04T02:02:24.404Z,0
2019-01-04T02:03:23.121Z,0
2019-01-04T02:04:21.702Z,0
2019-01-04T02:05:20.472Z,0
2019-01-04T02:06:19.091Z,0
2019-01-04T02:07:17.822Z,0
2019-01-04T02:08:16.507Z,0
2019-01-04T02:09:15.067Z,0
2019-01-04T02:10:13.856Z,0
2019-01-04T02:11:12.542Z,0
2019-01-04T02:12:11.046Z,0
2019-01-04T02:13:09.741Z,0
2019-01-04T02:14:08.448Z,0
2019-01-04T02:15:06.977Z,0
2019-01-04T02:16:05.582Z,0
2019-01-04T02:17:04.191Z,0
2019-01-04T02:18:02.709Z,0
2019-01-04T02:19:01.224Z,0
2019-01-04T02:19:59.760Z,0
2019-01-04T02:20:58.319Z,0
2019-01-04T02:21:56.890Z,0
2019-01-04T02:22:55.448Z,0
2019-01-04T02:23:54.413Z,0
2019-01-04T02:24:52.974Z,0
2019-01-04T02:25:51.508Z,0
2019-01-04T02:26:50.295Z,0
2019-01-04T02:27:48.838Z,0
2019-01-04T02:28:47.409Z,0
2019-01-04T02:29:45.936Z,0
2019-01-04T02:30:44.493Z,0
2019-01-04T02:31:43.024Z,0
2019-01-04T02:32:41.561Z,0
2019-01-04T02:33:40.445Z,0
2019-01-04T02:34:38.979Z,0
2019-01-04T02:35:37.628Z,0
2019-01-04T02:36:36.406Z,0
2019-01-04T02:37:34.937Z,0
2019-01-04T02:38:33.475Z,0
2019-01-04T02:39:32.018Z,0
2019-01-04T02:40:30.563Z,0
2019-01-04T02:41:29.117Z,0
2019-01-04T02:42:27.647Z,0
2019-01-04T02:43:26.192Z,0
2019-01-04T02:44:24.734Z,0
2019-01-04T02:45:23.271Z,0
2019-01-04T02:46:21.880Z,0
2019-01-04T02:47:20.645Z,0
2019-01-04T02:48:19.262Z,0
2019-01-04T02:49:18.234Z,0
2019-01-04T02:50:16.765Z,0
2019-01-04T02:51:15.294Z,0
2019-01-04T02:52:13.902Z,0
2019-01-04T02:53:12.611Z,0
2019-01-04T02:54:11.149Z,0
2019-01-04T02:55:09.945Z,0
2019-01-04T02:56:08.631Z,0
2019-01-04T02:57:07.284Z,0
2019-01-04T02:58:05.842Z,0
2019-01-04T02:59:04.372Z,0
2019-01-04T03:00:02.912Z,0
2019-01-04T03:01:01.465Z,0
2019-01-04T03:01:59.990Z,0
2019-01-04T03:02:58.552Z,0
2019-01-04T03:03:57.073Z,0
2019-01-04T03:04:55.633Z,0
2019-01-04T03:05:54.446Z,0
2019-01-04T03:06:53.011Z,0
2019-01-04T03:07:51.689Z,0
2019-01-04T03:08:50.611Z,0
2019-01-04T03:09:49.164Z,0
2019-01-04T03:10:48.487Z,0
2019-01-04T03:11:47.062Z,0
2019-01-04T03:12:45.655Z,0
2019-01-04T03:13:44.126Z,0
2019-01-04T03:14:42.662Z,0
2019-01-04T03:15:41.189Z,0
2019-01-04T03:16:39.771Z,0
2019-01-04T03:17:38.558Z,0
2019-01-04T03:18:37.118Z,0
2019-01-04T03:19:35.798Z,0
2019-01-04T03:20:34.526Z,0
2019-01-04T03:21:33.094Z,0
2019-01-04T03:22:31.713Z,0
2019-01-04T03:23:30.243Z,0
2019-01-04T03:24:28.766Z,0
2019-01-04T03:25:27.375Z,0
2019-01-04T03:26:25.940Z,0
2019-01-04T03:27:24.654Z,0
2019-01-04T03:28:23.206Z,0
2019-01-04T03:29:22.031Z,0
2019-01-04T03:30:20.650Z,0
2019-01-04T03:31:19.195Z,0
2019-01-04T03:32:17.858Z,0
2019-01-04T03:33:16.445Z,0
2019-01-04T03:34:14.997Z,0
2019-01-04T03:35:13.610Z,0
2019-01-04T03:36:12.603Z,0
2019-01-04T03:37:11.141Z,0
2019-01-04T03:38:09.853Z,0
2019-01-04T03:39:08.535Z,0
2019-01-04T03:40:07.072Z,0
2019-01-04T03:41:05.623Z,0
2019-01-04T03:42:04.168Z,0
2019-01-04T03:43:02.892Z,0
2019-01-04T03:44:01.446Z,0
2019-01-04T03:45:00.349Z,0
2019-01-04T03:45:58.856Z,0
2019-01-04T03:46:57.407Z,0
2019-01-04T03:47:56.063Z,0
2019-01-04T03:48:54.617Z,0
2019-01-04T03:49:53.167Z,0
2019-01-04T03:50:51.825Z,0
2019-01-04T03:51:50.375Z,0
2019-01-04T03:52:48.948Z,0
2019-01-04T03:53:47.858Z,0
2019-01-04T03:54:46.588Z,0
2019-01-04T03:55:45.144Z,0
2019-01-04T03:58:25.546Z,0
2019-01-04T03:59:24.304Z,0
2019-01-04T04:00:22.836Z,0
2019-01-04T04:01:21.602Z,0
2019-01-04T04:02:20.227Z,0
2019-01-04T04:03:18.767Z,0
2019-01-04T04:04:17.314Z,0
2019-01-04T04:05:15.854Z,0
2019-01-04T04:06:14.373Z,0
2019-01-04T04:07:13.029Z,0
2019-01-04T04:08:11.561Z,0
2019-01-04T04:09:10.303Z,0
2019-01-04T04:10:08.861Z,0
2019-01-04T04:11:07.490Z,0
2019-01-04T04:12:06.340Z,0
2019-01-04T04:13:05.883Z,0
2019-01-04T04:14:04.429Z,0
2019-01-04T04:15:02.957Z,0
2019-01-04T04:16:01.496Z,0
2019-01-04T04:17:00.049Z,0
2019-01-04T04:17:58.583Z,0
2019-01-04T04:18:57.141Z,0
2019-01-04T04:19:55.660Z,0
2019-01-04T04:20:54.504Z,0
2019-01-04T04:21:53.057Z,0
2019-01-04T04:22:51.650Z,0
2019-01-04T04:23:50.487Z,0
2019-01-04T04:24:49.008Z,0
2019-01-04T04:27:12.118Z,0
2019-01-04T04:28:10.729Z,0
2019-01-04T04:29:09.307Z,0
2019-01-04T04:30:07.914Z,0
2019-01-04T04:31:07.258Z,0
2019-01-04T04:32:05.939Z,0
2019-01-04T04:33:04.522Z,0
2019-01-04T04:34:03.085Z,0
2019-01-04T04:35:01.701Z,0
2019-01-04T04:36:00.540Z,0
2019-01-04T04:36:59.143Z,0
2019-01-04T04:37:57.791Z,0
2019-01-04T04:38:56.442Z,0
2019-01-04T04:39:55.068Z,0
2019-01-04T04:40:53.568Z,0
2019-01-04T04:41:52.182Z,0
2019-01-04T04:42:50.829Z,0
2019-01-04T04:43:49.421Z,0
2019-01-04T04:44:48.385Z,0
2019-01-04T04:45:46.926Z,0
2019-01-04T04:46:45.622Z,0
2019-01-04T04:47:44.258Z,0
2019-01-04T04:48:42.841Z,0
2019-01-04T04:49:41.406Z,0
2019-01-04T04:50:40.013Z,0
2019-01-04T04:51:38.738Z,0
2019-01-04T04:52:37.325Z,0
2019-01-04T04:53:36.150Z,0
2019-01-04T04:54:34.721Z,0
2019-01-04T04:55:33.294Z,0
2019-01-04T04:56:31.903Z,0
2019-01-04T04:57:30.437Z,0
2019-01-04T04:58:29.009Z,0
2019-01-04T04:59:27.545Z,0
2019-01-04T05:02:08.063Z,0
2019-01-04T05:03:06.745Z,0
2019-01-04T05:04:05.294Z,0
2019-01-04T05:05:03.920Z,0
2019-01-04T05:06:02.569Z,0
2019-01-04T05:07:01.150Z,0
2019-01-04T05:07:59.674Z,0
2019-01-04T05:08:58.499Z,0
2019-01-04T05:09:57.036Z,0
2019-01-04T05:10:55.709Z,0
2019-01-04T05:11:54.538Z,0
2019-01-04T05:12:53.080Z,0
2019-01-04T05:13:51.647Z,0
2019-01-04T05:14:50.149Z,0
2019-01-04T05:15:48.696Z,0
2019-01-04T05:16:47.235Z,0
2019-01-04T05:17:45.835Z,0
2019-01-04T05:18:44.717Z,0
2019-01-04T05:21:09.329Z,0
2019-01-04T05:22:07.989Z,0
2019-01-04T05:23:06.533Z,0
2019-01-04T05:24:05.100Z,0
2019-01-04T05:25:03.649Z,0
2019-01-04T05:26:02.296Z,0
2019-01-04T05:27:00.813Z,0
2019-01-04T05:27:59.374Z,0
2019-01-04T05:28:58.240Z,0
2019-01-04T05:29:56.787Z,0
2019-01-04T05:30:55.722Z,0
2019-01-04T05:31:54.247Z,0
2019-01-04T05:32:52.768Z,0
2019-01-04T05:33:51.317Z,0
2019-01-04T05:34:50.172Z,0
2019-01-04T05:35:48.791Z,0
2019-01-04T05:36:47.326Z,0
2019-01-04T05:37:46.204Z,0
2019-01-04T05:38:44.763Z,0
2019-01-04T05:39:43.325Z,0
2019-01-04T05:40:41.895Z,0
2019-01-04T05:41:40.427Z,0
2019-01-04T05:42:39.029Z,0
2019-01-04T05:43:37.594Z,0
2019-01-04T05:44:36.406Z,0
2019-01-04T05:45:34.941Z,0
2019-01-04T05:46:33.499Z,0
2019-01-04T05:47:32.358Z,0
2019-01-04T05:48:30.901Z,0
2019-01-04T05:49:29.492Z,0
2019-01-04T05:50:28.035Z,0
2019-01-04T05:51:26.596Z,0
2019-01-04T05:52:25.144Z,0
2019-01-04T05:53:23.696Z,0
2019-01-04T05:54:22.559Z,0
2019-01-04T05:55:21.175Z,0
2019-01-04T05:56:19.978Z,0
2019-01-04T05:57:18.577Z,0
2019-01-04T05:58:17.126Z,0
2019-01-04T05:59:15.670Z,0
2019-01-04T06:00:14.838Z,0
2019-01-04T06:01:13.634Z,0
2019-01-04T06:02:12.195Z,0
2019-01-04T06:03:10.781Z,0
2019-01-04T06:04:09.321Z,0
2019-01-04T06:05:08.303Z,0
2019-01-04T06:06:06.823Z,0
2019-01-04T06:07:06.311Z,0
2019-01-04T06:08:04.896Z,0
2019-01-04T06:09:03.588Z,0
2019-01-04T06:10:02.224Z,0
2019-01-04T06:11:00.747Z,0
2019-01-04T06:11:59.366Z,0
2019-01-04T06:12:57.877Z,0
2019-01-04T06:13:56.387Z,0
2019-01-04T06:14:54.935Z,0
2019-01-04T06:15:53.464Z,0
2019-01-04T06:16:52.342Z,0
2019-01-04T06:17:50.892Z,0
2019-01-04T06:18:49.784Z,0
2019-01-04T06:19:48.400Z,0
2019-01-04T06:20:46.950Z,0
2019-01-04T06:21:45.490Z,0
2019-01-04T06:22:44.059Z,0
2019-01-04T06:23:42.820Z,0
2019-01-04T06:24:41.532Z,0
2019-01-04T06:25:40.142Z,0
2019-01-04T06:26:38.744Z,0
2019-01-04T06:27:37.282Z,0
2019-01-04T06:28:35.957Z,0
2019-01-04T06:29:34.530Z,0
2019-01-04T06:30:33.067Z,0
2019-01-04T06:31:31.593Z,0
2019-01-04T06:32:30.293Z,0
2019-01-04T06:33:28.827Z,0
2019-01-04T06:34:27.375Z,0
2019-01-04T06:35:26.312Z,0
2019-01-04T06:36:24.868Z,0
2019-01-04T06:37:23.480Z,0
2019-01-04T06:38:22.135Z,0
2019-01-04T06:39:20.679Z,0
2019-01-04T06:40:19.201Z,0
2019-01-04T06:41:17.890Z,0
2019-01-04T06:42:16.566Z,0
2019-01-04T06:43:15.109Z,0
2019-01-04T06:45:55.594Z,0
2019-01-04T06:46:54.355Z,0
2019-01-04T06:47:52.918Z,0
2019-01-04T06:48:51.465Z,0
2019-01-04T06:49:50.430Z,0
2019-01-04T06:50:48.995Z,0
2019-01-04T06:51:48.489Z,0
2019-01-04T06:52:46.333Z,0
2019-01-04T06:53:44.941Z,4
2019-01-04T06:54:43.484Z,4
2019-01-04T06:55:42.454Z,0
2019-01-04T06:56:41.111Z,0
2019-01-04T06:57:39.780Z,4
2019-01-04T06:58:38.388Z,4
2019-01-04T06:59:36.894Z,0
2019-01-04T07:00:35.651Z,4
2019-01-04T07:01:34.382Z,8
2019-01-04T07:02:32.923Z,4
2019-01-04T07:03:31.573Z,8
2019-01-04T07:04:30.438Z,4
2019-01-04T07:05:28.984Z,8
2019-01-04T07:06:28.280Z,8
2019-01-04T07:07:26.820Z,12
2019-01-04T07:08:25.368Z,12
2019-01-04T07:09:24.000Z,12
2019-01-04T07:10:22.613Z,16
2019-01-04T07:11:21.429Z,16
2019-01-04T07:12:20.862Z,16
2019-01-04T07:13:19.383Z,20
2019-01-04T07:14:18.305Z,20
2019-01-04T07:15:16.883Z,24
2019-01-04T07:16:42.954Z,24
2019-01-04T07:17:41.693Z,28
2019-01-04T07:18:40.573Z,32
2019-01-04T07:19:39.083Z,32
2019-01-04T07:20:37.707Z,40
2019-01-04T07:21:36.533Z,40
2019-01-04T07:22:35.090Z,44
2019-01-04T07:23:33.624Z,48
2019-01-04T07:24:32.250Z,52
2019-01-04T07:25:31.024Z,56
2019-01-04T07:26:29.690Z,60
2019-01-04T07:27:28.529Z,64
2019-01-04T07:28:28.003Z,72
2019-01-04T07:29:26.239Z,80
2019-01-04T07:30:24.783Z,84
2019-01-04T07:31:23.340Z,92
2019-01-04T07:32:22.216Z,100
2019-01-04T07:33:20.797Z,104
2019-01-04T07:34:19.569Z,112
2019-01-04T07:35:18.289Z,120
2019-01-04T07:36:16.842Z,124
2019-01-04T07:37:15.409Z,128
2019-01-04T07:38:14.219Z,136
2019-01-04T07:39:12.794Z,144
2019-01-04T07:40:11.522Z,152
2019-01-04T07:41:10.514Z,160
2019-01-04T07:42:09.062Z,168
2019-01-04T07:43:07.813Z,176
2019-01-04T07:44:06.673Z,188
2019-01-04T07:45:05.242Z,196
2019-01-04T07:46:04.086Z,204
2019-01-04T07:47:02.787Z,216
2019-01-04T07:48:01.351Z,224
2019-01-04T07:48:59.881Z,236
2019-01-04T07:49:58.441Z,244
2019-01-04T07:50:56.937Z,252
2019-01-04T07:51:55.472Z,260
2019-01-04T07:52:53.968Z,280
2019-01-04T07:53:52.547Z,300
2019-01-04T07:54:51.596Z,312
2019-01-04T07:55:50.464Z,304
2019-01-04T07:56:49.045Z,304
2019-01-04T07:57:47.556Z,336
2019-01-04T07:58:46.081Z,368
2019-01-04T07:59:44.631Z,376
2019-01-04T08:00:43.206Z,364
2019-01-04T08:01:41.741Z,340
2019-01-04T08:02:40.605Z,336
2019-01-04T08:03:39.153Z,364
2019-01-04T08:04:37.823Z,396
2019-01-04T08:05:36.607Z,428
2019-01-04T08:06:35.187Z,432
2019-01-04T08:07:33.706Z,424
2019-01-04T08:08:32.729Z,440
2019-01-04T08:09:31.326Z,448
2019-01-04T08:10:30.187Z,444
2019-01-04T08:11:28.757Z,448
2019-01-04T08:12:27.320Z,472
2019-01-04T08:13:25.841Z,516
2019-01-04T08:14:24.505Z,564
2019-01-04T08:15:23.030Z,600
2019-01-04T08:16:21.667Z,632
2019-01-04T08:17:20.342Z,672
2019-01-04T08:18:18.872Z,708
2019-01-04T08:20:58.939Z,800
2019-01-04T08:21:57.538Z,832
2019-01-04T08:22:56.400Z,852
2019-01-04T08:23:54.908Z,852
2019-01-04T08:24:53.581Z,840
2019-01-04T08:25:52.672Z,820
2019-01-04T08:26:51.215Z,832
2019-01-04T08:27:49.891Z,864
2019-01-04T08:28:48.630Z,888
2019-01-04T08:29:47.973Z,908
2019-01-04T08:30:46.576Z,940
2019-01-04T08:31:45.099Z,968
2019-01-04T08:32:43.617Z,992
2019-01-04T08:33:42.453Z,1016
2019-01-04T08:34:40.947Z,1028
2019-01-04T08:35:39.652Z,1036
2019-01-04T08:36:38.462Z,1040
2019-01-04T08:37:37.024Z,1072
2019-01-04T08:38:35.565Z,1120
2019-01-04T08:39:34.143Z,1136
2019-01-04T08:40:32.688Z,1164
2019-01-04T08:41:31.203Z,1176
2019-01-04T08:42:29.726Z,1228
2019-01-04T08:43:28.614Z,1280
2019-01-04T08:44:27.139Z,1332
2019-01-04T08:45:25.812Z,1380
2019-01-04T08:46:24.609Z,1412
2019-01-04T08:47:23.131Z,1436
2019-01-04T08:48:21.786Z,1448
2019-01-04T08:49:20.333Z,1444
2019-01-04T08:50:19.025Z,1440
2019-01-04T08:51:17.571Z,1420
2019-01-04T08:52:16.457Z,1400
2019-01-04T08:53:15.013Z,1368
2019-01-04T08:54:13.669Z,1340
2019-01-04T08:55:12.304Z,1324
2019-01-04T08:56:10.883Z,1320
2019-01-04T08:57:09.425Z,1320
2019-01-04T08:58:07.930Z,1332
2019-01-04T08:59:06.496Z,1356
2019-01-04T09:00:05.254Z,1404
2019-01-04T09:01:04.217Z,1468
2019-01-04T09:02:02.848Z,1524
2019-01-04T09:03:01.382Z,1580
2019-01-04T09:03:59.971Z,1648
2019-01-04T09:04:58.497Z,1708
2019-01-04T09:05:57.023Z,1752
2019-01-04T09:06:55.578Z,1768
2019-01-04T09:07:54.217Z,1776
2019-01-04T09:08:52.890Z,1772
2019-01-04T09:09:51.398Z,1764
2019-01-04T09:10:50.237Z,1748
2019-01-04T09:11:48.750Z,1724
2019-01-04T09:12:47.258Z,1700
2019-01-04T09:13:46.064Z,1664
2019-01-04T09:14:44.573Z,1612
2019-01-04T09:15:43.127Z,1548
2019-01-04T09:16:41.609Z,1492
2019-01-04T09:17:40.140Z,1440
2019-01-04T09:18:39.487Z,1404
2019-01-04T09:19:38.197Z,1392
2019-01-04T09:20:36.768Z,1396
2019-01-04T09:21:35.282Z,1408
2019-01-04T09:22:33.773Z,1412
2019-01-04T09:23:32.325Z,1428
2019-01-04T09:24:30.899Z,1448
2019-01-04T09:25:29.659Z,1460
2019-01-04T09:26:28.516Z,1468
2019-01-04T09:27:27.067Z,1472
2019-01-04T09:28:25.773Z,1484
2019-01-04T09:31:05.954Z,1492
2019-01-04T09:32:04.711Z,1472
2019-01-04T09:33:03.232Z,1432
2019-01-04T09:34:02.038Z,1388
2019-01-04T09:35:00.703Z,1356
2019-01-04T09:35:59.254Z,1332
2019-01-04T09:36:57.858Z,1308
2019-01-04T09:37:56.388Z,1280
2019-01-04T09:38:54.969Z,1264
2019-01-04T09:39:53.497Z,1244
2019-01-04T09:40:52.038Z,1244
2019-01-04T09:41:50.663Z,1240
2019-01-04T09:42:49.195Z,1244
2019-01-04T09:43:47.753Z,1256
2019-01-04T09:44:46.539Z,1260
2019-01-04T09:45:45.106Z,1268
2019-01-04T09:46:43.720Z,1264
2019-01-04T09:47:42.530Z,1260
2019-01-04T09:50:06.256Z,1248
2019-01-04T09:51:04.821Z,1260
2019-01-04T09:52:03.500Z,1292
2019-01-04T09:53:02.353Z,1328
2019-01-04T09:54:00.962Z,1372
2019-01-04T09:55:00.158Z,1408
2019-01-04T09:55:58.814Z,1436
2019-01-04T09:56:57.355Z,1444
2019-01-04T09:57:55.986Z,1444
2019-01-04T09:58:54.541Z,1436
2019-01-04T09:59:53.128Z,1428
2019-01-04T10:00:51.632Z,1408
2019-01-04T10:01:50.664Z,1388
2019-01-04T10:02:49.194Z,1360
2019-01-04T10:03:47.820Z,1328
2019-01-04T10:04:46.641Z,1284
2019-01-04T10:05:45.229Z,1248
2019-01-04T10:06:43.758Z,1212
2019-01-04T10:07:42.676Z,1188
2019-01-04T10:08:44.836Z,1168
2019-01-04T10:09:39.893Z,1156
2019-01-04T10:10:38.561Z,1144
2019-01-04T10:11:37.105Z,1140
2019-01-04T10:12:35.727Z,1140
2019-01-04T10:13:34.304Z,1144
2019-01-04T10:14:32.876Z,1140
2019-01-04T10:15:31.398Z,1132
2019-01-04T10:16:30.439Z,1116
2019-01-04T10:17:29.107Z,1100
2019-01-04T10:18:27.800Z,1080
2019-01-04T10:19:26.345Z,1056
2019-01-04T10:20:24.906Z,1040
2019-01-04T10:21:23.503Z,1028
2019-01-04T10:24:04.645Z,1152
2019-01-04T10:25:03.256Z,1564
2019-01-04T10:26:02.090Z,1556
2019-01-04T10:27:00.738Z,1608
2019-01-04T10:27:59.287Z,1620
2019-01-04T10:28:57.992Z,1636
2019-01-04T10:29:56.685Z,1652
2019-01-04T10:30:55.237Z,1688
2019-01-04T10:31:54.103Z,1728
2019-01-04T10:42:31.940Z,2132
2019-01-04T10:43:30.656Z,2108
2019-01-04T10:44:29.245Z,2264
2019-01-04T10:45:27.974Z,2144
2019-01-04T10:46:26.922Z,2268
2019-01-04T10:47:25.421Z,2360
2019-01-04T10:48:24.321Z,2388
2019-01-04T10:49:22.814Z,2396
2019-01-04T10:50:21.378Z,2392
2019-01-04T10:51:19.968Z,2432
2019-01-04T10:52:18.495Z,2416
2019-01-04T10:53:17.065Z,2232
2019-01-04T10:54:15.605Z,2356
2019-01-04T10:55:14.688Z,2552
2019-01-04T10:56:14.304Z,2556
2019-01-04T10:57:12.507Z,2624
2019-01-04T10:58:11.081Z,2656
2019-01-04T10:59:09.788Z,2684
2019-01-04T11:00:08.625Z,2656
2019-01-04T11:01:08.039Z,2632
2019-01-04T11:02:05.755Z,2728
2019-01-04T11:03:04.625Z,2720
2019-01-04T11:04:03.226Z,2656
2019-01-04T11:05:01.779Z,2660
2019-01-04T11:06:00.614Z,2660
2019-01-04T11:06:59.336Z,2640
2019-01-04T11:07:57.865Z,2624
2019-01-04T11:08:56.715Z,2580
2019-01-04T11:09:55.289Z,2568
2019-01-04T11:10:54.124Z,2512
2019-01-04T11:11:52.655Z,2416
2019-01-04T11:12:51.301Z,2276
2019-01-04T11:13:49.814Z,2144
2019-01-04T11:14:48.786Z,2024
2019-01-04T11:15:47.327Z,1912
2019-01-04T11:16:46.013Z,1800
2019-01-04T11:17:44.657Z,1744
2019-01-04T11:18:43.233Z,1740
2019-01-04T11:19:41.871Z,1772
2019-01-04T11:20:40.406Z,1796
2019-01-04T11:21:38.913Z,1852
2019-01-04T11:22:37.450Z,1924
2019-01-04T11:23:36.125Z,1976
2019-01-04T11:24:34.801Z,2040
2019-01-04T11:25:33.338Z,2152
2019-01-04T11:26:32.054Z,2276
2019-01-04T11:27:30.725Z,2368
2019-01-04T11:28:29.313Z,2408
2019-01-04T11:29:27.945Z,2468
2019-01-04T11:30:26.488Z,2468
2019-01-04T11:31:25.055Z,2460
2019-01-04T11:32:23.594Z,2420
2019-01-04T11:33:22.088Z,2396
2019-01-04T11:34:22.875Z,2416
2019-01-04T11:35:21.369Z,2424
2019-01-04T11:36:20.197Z,2452
2019-01-04T11:37:18.895Z,2508
2019-01-04T11:38:17.412Z,2656
2019-01-04T11:39:16.038Z,2756
2019-01-04T11:40:14.627Z,2928
2019-01-04T11:41:13.138Z,3068
2019-01-04T11:42:11.682Z,3188
2019-01-04T11:43:10.271Z,3332
2019-01-04T11:44:08.972Z,3448
2019-01-04T11:45:07.540Z,3548
2019-01-04T11:46:06.369Z,3620
2019-01-04T11:47:04.955Z,3672
2019-01-04T11:48:03.555Z,3696
2019-01-04T11:49:02.447Z,3712
2019-01-04T11:50:01.063Z,3724
2019-01-04T11:50:59.656Z,3700
2019-01-04T11:51:58.637Z,3644
2019-01-04T11:52:57.131Z,3532
2019-01-04T11:53:55.919Z,3432
2019-01-04T11:54:54.552Z,3448
2019-01-04T11:55:53.603Z,3452
2019-01-04T11:56:52.646Z,3444
2019-01-04T11:57:51.650Z,3440
2019-01-04T11:58:50.405Z,3448
2019-01-04T11:59:49.329Z,3496
2019-01-04T12:00:49.034Z,3468
2019-01-04T12:01:47.983Z,3448
2019-01-04T12:02:46.641Z,3420
2019-01-04T12:03:46.096Z,3372
2019-01-04T12:04:47.765Z,3344
2019-01-04T12:05:47.081Z,3308
2019-01-04T12:06:46.075Z,3264
2019-01-04T12:07:46.082Z,3184
2019-01-04T12:08:45.463Z,3088
2019-01-04T12:09:44.053Z,2988
2019-01-04T12:10:43.326Z,2904
2019-01-04T12:11:42.237Z,2840
2019-01-04T12:12:40.898Z,2804
2019-01-04T12:13:39.850Z,2792
2019-01-04T12:14:41.429Z,2776
2019-01-04T12:15:38.330Z,2752
2019-01-04T12:16:37.402Z,2696
2019-01-04T12:17:35.942Z,2620
2019-01-04T12:18:34.572Z,2560
2019-01-04T12:19:33.380Z,2528
2019-01-04T12:20:32.233Z,2516
2019-01-04T12:21:32.160Z,2500
2019-01-04T12:22:30.206Z,2476
2019-01-04T12:23:29.172Z,2448
2019-01-04T12:24:28.165Z,2428
2019-01-04T12:25:26.899Z,2424
2019-01-04T12:26:25.425Z,2440
2019-01-04T12:27:24.076Z,2472
2019-01-04T12:28:22.827Z,2524
2019-01-04T12:29:21.373Z,2548
2019-01-04T12:30:20.246Z,2544
2019-01-04T12:31:19.038Z,2528
2019-01-04T12:32:17.655Z,2496
2019-01-04T12:33:16.150Z,2460
2019-01-04T12:34:16.678Z,2424
2019-01-04T12:35:13.373Z,2392
2019-01-04T12:36:11.929Z,2360
2019-01-04T12:37:10.883Z,2332
2019-01-04T12:40:49.587Z,2340
2019-01-04T12:41:48.186Z,2372
2019-01-04T12:42:46.795Z,2408
2019-01-04T12:43:47.883Z,2444
2019-01-04T12:44:43.856Z,2496
2019-01-04T12:45:42.807Z,2552
2019-01-04T12:46:41.343Z,2596
2019-01-04T12:47:40.262Z,2620
2019-01-04T12:48:38.911Z,2624
2019-01-04T12:49:37.473Z,2640
2019-01-04T12:50:36.280Z,2648
2019-01-04T12:51:34.961Z,2644
2019-01-04T12:52:33.657Z,2628
2019-01-04T12:53:33.036Z,2604
2019-01-04T12:54:31.670Z,2496
2019-01-04T12:55:30.399Z,2556
2019-01-04T12:56:29.046Z,2544
2019-01-04T12:57:27.596Z,2528
2019-01-04T12:58:26.684Z,2504
2019-01-04T12:59:25.457Z,2488
2019-01-04T13:00:24.013Z,2464
2019-01-04T13:01:22.586Z,2444
2019-01-04T13:02:21.128Z,2420
2019-01-04T13:03:19.646Z,2396
2019-01-04T13:04:18.744Z,2364
2019-01-04T13:05:17.332Z,2324
2019-01-04T13:06:16.165Z,2276
2019-01-04T13:07:14.896Z,2236
2019-01-04T13:08:14.760Z,2188
2019-01-04T13:09:13.278Z,2140
2019-01-04T13:10:11.961Z,2092
2019-01-04T13:11:10.582Z,2048
2019-01-04T13:12:09.144Z,2020
2019-01-04T13:13:07.692Z,2020
2019-01-04T13:14:06.291Z,2040
2019-01-04T13:15:05.034Z,2056
2019-01-04T13:17:45.419Z,2028
2019-01-04T13:18:44.105Z,1992
2019-01-04T13:19:42.681Z,1948
2019-01-04T13:20:41.224Z,1916
2019-01-04T13:21:40.709Z,1888
2019-01-04T13:22:46.858Z,1860
2019-01-04T13:23:45.371Z,1840
2019-01-04T13:24:43.937Z,1828
2019-01-04T13:25:42.558Z,1816
2019-01-04T13:45:14.590Z,1388
2019-01-04T13:46:13.093Z,1340
2019-01-04T13:47:11.677Z,1292
2019-01-04T13:48:10.380Z,1248
2019-01-04T13:49:09.027Z,1200
2019-01-04T13:50:07.464Z,1164
2019-01-04T13:51:06.002Z,1132
2019-01-04T13:52:04.537Z,1120
2019-01-04T13:53:03.089Z,1124
2019-01-04T13:54:01.621Z,1144
2019-01-04T13:55:00.265Z,1180
2019-01-04T13:55:58.909Z,1240
2019-01-04T13:56:57.525Z,1284
2019-01-04T13:57:56.264Z,1316
2019-01-04T13:58:54.976Z,1316
2019-01-04T13:59:53.512Z,1288
2019-01-04T14:00:52.088Z,1236
2019-01-04T14:01:50.725Z,1168
2019-01-04T14:02:49.382Z,1100
2019-01-04T14:03:48.195Z,1044
2019-01-04T14:04:46.772Z,1020
2019-01-04T14:05:45.314Z,1004
2019-01-04T14:06:43.901Z,996
2019-01-04T14:07:42.915Z,992
2019-01-04T14:08:41.889Z,996
2019-01-04T14:09:40.656Z,1000
2019-01-04T14:10:39.464Z,1008
2019-01-04T14:11:38.259Z,1020
2019-01-04T14:12:37.082Z,1040
2019-01-04T14:13:35.597Z,1064
2019-01-04T14:14:34.223Z,1076
2019-01-04T14:15:32.908Z,1092
2019-01-04T14:16:31.827Z,1120
2019-01-04T14:17:30.433Z,1148
2019-01-04T14:18:28.988Z,1184
2019-01-04T14:19:27.577Z,1216
2019-01-04T14:20:26.517Z,1248
2019-01-04T14:21:25.051Z,1260
2019-01-04T14:22:23.780Z,1252
2019-01-04T14:23:28.639Z,1232
2019-01-04T14:24:21.138Z,1204
2019-01-04T14:25:19.837Z,1172
2019-01-04T14:26:18.428Z,1140
2019-01-04T14:27:16.963Z,1116
2019-01-04T14:28:15.508Z,1092
2019-01-04T14:29:14.115Z,1084
2019-01-04T14:30:12.715Z,1084
2019-01-04T14:31:11.266Z,1080
2019-01-04T14:32:10.616Z,1084
2019-01-04T14:33:09.172Z,1076
2019-01-04T14:34:07.683Z,1064
2019-01-04T14:35:06.231Z,1044
2019-01-04T14:36:04.991Z,1032
2019-01-04T14:37:03.470Z,1020
2019-01-04T14:38:02.331Z,1004
2019-01-04T14:39:00.966Z,988